Terminal Aerodrome Forecast
Issued by NWS

Home | Current Version | Previous Version | Text Only | Print | Product List | Glossary On
Versions: 1 2 3 4 5 6 7 8 9 10 11 12 13 14 15 16 17 18 19 20 21 22 23 24 25 26 27 28 29 30 31 32 33 34 35 36
000
FTUS43 KDTX 071729
TAFYIP
TAF
KYIP 071729Z 0718/0818 18012G22KT P6SM OVC090
     FM080100 19008KT P6SM SCT035 OVC050
      TEMPO 0801/0804 -RA OVC030
     FM080400 22007KT P6SM OVC028
     FM081000 23006KT 6SM BR SCT010 OVC100
     FM081600 25005KT P6SM BKN030=

USA.gov is the U.S. government's official web portal to all federal, state and local government web resources and services.